Rondeau, Canada
Current Conditions -  °F | °C
As of 1:00 AM on Monday 22 Dec 2014 (Local Time) from CYCK Reporting Station
Overcast Overcast  
Wind Chill: -5°   Ceiling: 2300
Heat Index:   Visibility: 9mi
Dew Point: -4°   Wind: 10mph
Humidity: 75%   Direction: 160°SSE
Pressure: 30.19"   Gusts: NA
Location:  42.28°N, 81.87°W
Report Text: CYCK 220600Z AUTO 16009KT 9SM OVC023 M00/M04 A3019 RMK SLP231
Loading
Personal Weather Stations






























Interactive Weather Map New forecast layout! Learn more

10-Day Weather Forecast

Advertisements
Track Severe Weather on mobile